createdAt,value
2022-11-08T00:01:57.136Z,48.78
2022-11-08T00:04:25.304Z,46.35
2022-11-08T00:07:10.866Z,44.95
2022-11-08T00:09:57.385Z,51.90
2022-11-08T00:12:42.290Z,42.90
2022-11-08T00:15:10.555Z,47.47
2022-11-08T00:17:38.188Z,37.67
2022-11-08T00:20:06.489Z,48.35
2022-11-08T00:22:34.087Z,40.83
2022-11-08T00:25:02.971Z,41.10
2022-11-08T00:27:30.454Z,56.58
2022-11-08T00:29:57.966Z,45.60
2022-11-08T00:32:26.532Z,43.22
2022-11-08T00:34:54.218Z,40.00
2022-11-08T00:37:22.607Z,47.08
2022-11-08T00:39:50.159Z,42.42
2022-11-08T00:42:19.247Z,39.47
2022-11-08T00:44:46.807Z,40.85
2022-11-08T00:47:14.283Z,41.05
2022-11-08T00:49:41.768Z,49.75
2022-11-08T00:52:09.403Z,40.72
2022-11-08T00:54:36.887Z,46.25
2022-11-08T00:57:04.523Z,41.95
2022-11-08T00:59:33.329Z,52.28
2022-11-08T01:02:00.995Z,56.63
2022-11-08T01:04:28.535Z,45.75
2022-11-08T01:06:56.025Z,67.95
2022-11-08T01:09:23.539Z,54.95
2022-11-08T01:11:50.995Z,51.58
2022-11-08T01:14:18.509Z,40.08
2022-11-08T01:16:47.432Z,38.88
2022-11-08T01:19:14.994Z,40.63
2022-11-08T01:21:42.451Z,40.95
2022-11-08T01:24:10.100Z,46.22
2022-11-08T01:26:37.599Z,42.75
2022-11-08T01:29:05.090Z,58.13
2022-11-08T01:31:33.448Z,44.67
2022-11-08T01:34:02.295Z,44.38
2022-11-08T01:36:30.146Z,47.95
2022-11-08T01:38:58.788Z,38.22
2022-11-08T01:41:27.179Z,37.47
2022-11-08T01:43:55.484Z,30.23
2022-11-08T01:46:37.857Z,47.63
2022-11-08T01:49:22.885Z,39.85
2022-11-08T01:51:52.459Z,37.03
2022-11-08T01:54:21.782Z,39.17
2022-11-08T01:56:49.533Z,43.22
2022-11-08T01:59:18.459Z,31.98
2022-11-08T02:01:46.302Z,38.60
2022-11-08T02:04:15.104Z,41.28
2022-11-08T02:06:45.176Z,38.97
2022-11-08T02:09:14.749Z,39.15
2022-11-08T02:11:42.902Z,43.40
2022-11-08T02:14:10.666Z,35.03
2022-11-08T02:16:38.308Z,36.88
2022-11-08T02:19:07.324Z,37.97
2022-11-08T02:21:38.852Z,42.55
2022-11-08T02:24:09.588Z,32.63
2022-11-08T02:26:37.878Z,38.33
2022-11-08T02:29:24.536Z,39.38
2022-11-08T02:31:52.053Z,41.45
2022-11-08T02:34:19.830Z,30.70
2022-11-08T02:36:48.662Z,37.60
2022-11-08T02:39:17.624Z,37.67
2022-11-08T02:41:45.155Z,40.25
2022-11-08T02:44:12.704Z,50.10
2022-11-08T02:46:40.203Z,31.15
2022-11-08T02:49:07.706Z,41.90
2022-11-08T02:51:35.191Z,37.97
2022-11-08T02:54:02.753Z,37.60
2022-11-08T02:56:31.668Z,38.10
2022-11-08T02:58:59.215Z,36.28
2022-11-08T03:01:27.060Z,37.35
2022-11-08T03:03:54.661Z,31.13
2022-11-08T03:06:22.172Z,42.08
2022-11-08T03:08:49.695Z,36.80
2022-11-08T03:11:17.374Z,31.23
2022-11-08T03:13:46.242Z,30.05
2022-11-08T03:16:13.794Z,38.35
2022-11-08T03:18:41.307Z,27.13
2022-11-08T03:21:08.809Z,34.90
2022-11-08T03:23:36.441Z,36.20
2022-11-08T03:26:03.933Z,31.30
2022-11-08T03:28:31.564Z,31.17
2022-11-08T03:31:00.457Z,31.77
2022-11-08T03:33:28.001Z,38.75
2022-11-08T03:35:55.523Z,35.33
2022-11-08T03:38:23.103Z,33.45
2022-11-08T03:40:50.665Z,40.38
2022-11-08T03:43:18.174Z,41.00
2022-11-08T03:45:46.466Z,36.95
2022-11-08T03:48:15.600Z,35.20
2022-11-08T03:50:43.364Z,36.22
2022-11-08T03:53:11.003Z,37.67
2022-11-08T03:55:38.545Z,31.80
2022-11-08T03:58:06.036Z,36.03
2022-11-08T04:00:33.622Z,39.83
2022-11-08T04:03:01.980Z,36.83
2022-11-08T04:05:32.379Z,39.75
2022-11-08T04:08:00.261Z,31.27
2022-11-08T04:10:27.791Z,42.50
2022-11-08T04:13:12.956Z,37.55
2022-11-08T04:15:40.574Z,38.75
2022-11-08T04:18:25.567Z,37.42
2022-11-08T04:21:12.270Z,28.85
2022-11-08T04:23:39.749Z,42.85
2022-11-08T04:26:07.913Z,39.45
2022-11-08T04:28:36.765Z,30.08
2022-11-08T04:31:04.913Z,31.88
2022-11-08T04:33:32.441Z,41.67
2022-11-08T04:36:04.010Z,35.05
2022-11-08T04:38:31.615Z,36.47
2022-11-08T04:41:03.675Z,36.80
2022-11-08T04:43:31.926Z,33.22
2022-11-08T04:46:00.278Z,32.97
2022-11-08T04:48:27.894Z,39.38
2022-11-08T04:50:55.604Z,39.78
2022-11-08T04:53:24.481Z,37.08
2022-11-08T04:55:51.921Z,42.50
2022-11-08T04:58:19.805Z,41.05
2022-11-08T05:00:47.642Z,35.03
2022-11-08T05:03:15.140Z,37.28
2022-11-08T05:05:42.628Z,41.08
2022-11-08T05:08:10.126Z,37.55
2022-11-08T05:10:40.100Z,37.50
2022-11-08T05:13:07.633Z,37.50
2022-11-08T05:15:35.734Z,42.50
2022-11-08T05:18:03.232Z,34.05
2022-11-08T05:20:48.206Z,38.92
2022-11-08T05:23:27.543Z,51.85
2022-11-08T05:26:00.662Z,45.55
2022-11-08T05:28:28.157Z,40.08
2022-11-08T05:30:56.509Z,42.53
2022-11-08T05:33:24.383Z,41.75
2022-11-08T05:35:51.878Z,40.35
2022-11-08T05:38:20.849Z,43.85
2022-11-08T05:40:48.864Z,43.83
2022-11-08T05:43:17.970Z,40.22
2022-11-08T05:45:46.134Z,35.63
2022-11-08T05:48:13.627Z,40.40
2022-11-08T05:50:41.105Z,39.40
2022-11-08T05:53:08.565Z,40.78
2022-11-08T05:55:36.071Z,36.85
2022-11-08T05:58:03.649Z,41.63
2022-11-08T06:00:32.544Z,37.15
2022-11-08T06:03:00.105Z,32.15
2022-11-08T06:05:27.867Z,35.05
2022-11-08T06:07:55.373Z,45.80
2022-11-08T06:10:22.935Z,45.75
2022-11-08T06:12:50.668Z,41.35
2022-11-08T06:15:18.260Z,35.83
2022-11-08T06:17:47.153Z,41.50
2022-11-08T06:20:14.812Z,38.97
2022-11-08T06:22:43.399Z,40.35
2022-11-08T06:25:11.019Z,43.75
2022-11-08T06:27:38.563Z,42.58
2022-11-08T06:30:06.666Z,48.90
2022-11-08T06:32:34.310Z,41.95
2022-11-08T06:35:03.167Z,42.25
2022-11-08T06:37:34.736Z,43.17
2022-11-08T06:40:02.348Z,48.05
2022-11-08T06:42:29.961Z,36.38
2022-11-08T06:44:57.451Z,43.20
2022-11-08T06:47:24.961Z,43.03
2022-11-08T06:49:52.458Z,42.38
2022-11-08T06:52:21.353Z,45.55
2022-11-08T06:54:52.074Z,37.97
2022-11-08T06:57:19.611Z,40.92
2022-11-08T06:59:47.131Z,41.35
2022-11-08T07:02:14.749Z,43.47
2022-11-08T07:04:42.470Z,42.42
2022-11-08T07:07:09.921Z,38.40
2022-11-08T07:09:38.832Z,42.35
2022-11-08T07:12:06.493Z,44.88
2022-11-08T07:14:34.852Z,47.38
2022-11-08T07:17:02.366Z,44.60
2022-11-08T07:19:29.856Z,40.75
2022-11-08T07:21:57.387Z,42.15
2022-11-08T07:24:24.863Z,42.97
2022-11-08T07:26:53.725Z,46.97
2022-11-08T07:29:21.208Z,46.25
2022-11-08T07:31:48.800Z,45.05
2022-11-08T07:34:17.559Z,46.50
2022-11-08T07:36:45.025Z,46.42
2022-11-08T07:39:12.529Z,45.45
2022-11-08T07:41:40.006Z,46.22
2022-11-08T07:44:08.856Z,47.67
2022-11-08T07:46:36.403Z,50.25
2022-11-08T07:49:03.917Z,51.58
2022-11-08T07:51:31.612Z,54.28
2022-11-08T07:54:02.804Z,52.33
2022-11-08T07:56:31.005Z,50.33
2022-11-08T07:58:58.604Z,56.10
2022-11-08T08:01:27.505Z,48.38
2022-11-08T08:03:55.099Z,45.92
2022-11-08T08:06:25.312Z,53.55
2022-11-08T08:08:52.905Z,49.70
2022-11-08T08:11:20.505Z,54.78
2022-11-08T08:13:48.044Z,51.33
2022-11-08T08:16:15.554Z,86.03
2022-11-08T08:18:44.708Z,57.63
2022-11-08T08:21:13.787Z,52.78
2022-11-08T08:23:41.302Z,56.03
2022-11-08T08:26:08.936Z,62.10
2022-11-08T08:28:36.412Z,55.55
2022-11-08T08:31:06.832Z,57.60
2022-11-08T08:33:34.848Z,57.03
2022-11-08T08:36:04.238Z,42.83
2022-11-08T08:38:32.235Z,49.47
2022-11-08T08:40:59.914Z,70.80
2022-11-08T08:43:28.433Z,54.40
2022-11-08T08:45:56.194Z,63.72
2022-11-08T08:48:23.699Z,67.28
2022-11-08T08:50:51.189Z,68.68
2022-11-08T08:53:20.432Z,50.35
2022-11-08T08:55:48.388Z,52.90
2022-11-08T08:58:18.200Z,58.25
2022-11-08T09:03:37.325Z,68.90
2022-11-08T09:06:05.078Z,71.00
2022-11-08T09:08:34.092Z,67.55
2022-11-08T09:11:02.331Z,67.65
2022-11-08T09:13:30.885Z,70.63
2022-11-08T09:16:00.180Z,63.45
2022-11-08T09:18:31.350Z,55.45
2022-11-08T09:20:59.195Z,71.32
2022-11-08T09:23:26.729Z,71.90
2022-11-08T09:25:59.325Z,67.43
2022-11-08T09:28:30.947Z,63.15
2022-11-08T09:31:00.533Z,67.53
2022-11-08T09:36:00.822Z,65.15
2022-11-08T09:38:28.362Z,58.05
2022-11-08T09:41:02.653Z,60.58
2022-11-08T09:45:58.028Z,65.18
2022-11-08T09:48:27.675Z,71.05
2022-11-08T09:50:56.280Z,65.70
2022-11-08T09:53:27.432Z,65.90
2022-11-08T09:55:57.985Z,57.42
2022-11-08T09:58:31.430Z,48.08
2022-11-08T10:01:00.091Z,54.47
2022-11-08T10:03:27.778Z,49.55
2022-11-08T10:06:13.529Z,48.45
2022-11-08T10:08:45.089Z,53.15
2022-11-08T10:11:18.490Z,52.17
2022-11-08T10:13:53.439Z,54.97
2022-11-08T10:16:25.807Z,56.80
2022-11-08T10:19:10.909Z,59.25
2022-11-08T10:21:44.005Z,59.58
2022-11-08T10:24:15.901Z,57.50
2022-11-08T10:26:45.295Z,53.30
2022-11-08T10:29:19.157Z,46.13
2022-11-08T10:31:47.742Z,50.05
2022-11-08T10:34:18.428Z,51.53
2022-11-08T10:36:46.898Z,55.85
2022-11-08T10:39:16.667Z,46.72
2022-11-08T10:41:46.010Z,56.65
2022-11-08T10:44:15.384Z,55.13
2022-11-08T10:46:45.332Z,45.63
2022-11-08T10:49:18.035Z,49.90
2022-11-08T10:51:46.172Z,51.25
2022-11-08T10:54:32.486Z,59.35
2022-11-08T10:56:59.980Z,56.67
2022-11-08T10:59:30.996Z,60.03
2022-11-08T11:02:00.137Z,58.40
2022-11-08T11:04:28.438Z,63.85
2022-11-08T11:06:56.007Z,50.67
2022-11-08T11:09:27.762Z,58.75
2022-11-08T11:11:58.898Z,57.70
2022-11-08T11:14:26.727Z,51.83
2022-11-08T11:16:56.533Z,62.65
2022-11-08T11:19:26.194Z,53.60
2022-11-08T11:21:57.588Z,53.78
2022-11-08T11:24:25.527Z,46.90
2022-11-08T11:27:01.538Z,45.55
2022-11-08T11:29:30.350Z,48.50
2022-11-08T11:31:58.296Z,48.63
2022-11-08T11:34:33.192Z,49.05
2022-11-08T11:37:02.632Z,44.30
2022-11-08T11:39:32.970Z,42.53
2022-11-08T11:42:24.029Z,58.05
2022-11-08T11:44:56.436Z,40.50
2022-11-08T11:47:29.571Z,41.72
2022-11-08T11:49:59.080Z,37.30
2022-11-08T11:52:26.599Z,43.53
2022-11-08T11:54:54.532Z,40.58
2022-11-08T11:57:29.820Z,45.72
2022-11-08T12:00:02.892Z,44.97
2022-11-08T12:02:41.447Z,47.92
2022-11-08T12:05:23.972Z,46.30
2022-11-08T12:07:58.427Z,46.65
2022-11-08T12:31:17.918Z,57.47
2022-11-08T12:33:55.235Z,61.83
2022-11-08T12:36:31.528Z,57.38
2022-11-08T12:39:04.431Z,59.08
2022-11-08T12:41:35.610Z,60.55
2022-11-08T12:44:21.057Z,48.35
2022-11-08T12:46:58.653Z,54.58
2022-11-08T12:49:31.938Z,48.95
2022-11-08T12:52:09.549Z,50.47
2022-11-08T12:54:38.615Z,52.95
2022-11-08T12:57:09.797Z,59.95
2022-11-08T12:59:39.626Z,52.25
2022-11-08T13:02:14.350Z,53.88
2022-11-08T13:04:46.612Z,54.00
2022-11-08T13:07:22.706Z,59.55
2022-11-08T13:09:53.140Z,65.93
2022-11-08T13:12:27.116Z,70.97
2022-11-08T13:14:54.648Z,73.03
2022-11-08T13:17:26.254Z,62.92
2022-11-08T13:20:02.140Z,67.30
2022-11-08T13:22:42.357Z,58.25
2022-11-08T13:25:30.049Z,58.97
2022-11-08T13:27:58.677Z,65.57
2022-11-08T13:30:37.064Z,66.18
2022-11-08T13:33:09.928Z,55.53
2022-11-08T13:35:39.945Z,68.43
2022-11-08T13:38:15.478Z,52.58
2022-11-08T13:40:44.619Z,55.90
2022-11-08T13:43:21.525Z,62.45
2022-11-08T13:45:49.985Z,63.80
2022-11-08T13:48:36.116Z,72.70
2022-11-08T13:51:22.426Z,57.42
2022-11-08T13:53:51.590Z,54.92
2022-11-08T13:56:34.632Z,54.70
2022-11-08T13:59:02.139Z,64.32
2022-11-08T14:01:48.278Z,67.28
2022-11-08T14:04:28.065Z,65.13
2022-11-08T14:07:00.816Z,72.22
2022-11-08T14:09:33.560Z,69.07
2022-11-08T14:12:03.765Z,64.00
2022-11-08T14:14:38.555Z,68.68
2022-11-08T14:17:25.390Z,71.63
2022-11-08T14:19:54.734Z,84.47
2022-11-08T14:22:23.581Z,65.03
2022-11-08T14:24:52.905Z,75.55
2022-11-08T14:27:33.870Z,83.10
2022-11-08T14:30:02.023Z,75.93
2022-11-08T14:32:30.195Z,64.28
2022-11-08T14:35:13.048Z,75.57
2022-11-08T14:37:42.945Z,71.05
2022-11-08T14:40:17.376Z,64.93
2022-11-08T14:42:45.299Z,69.72
2022-11-08T14:45:14.121Z,63.22
2022-11-08T14:47:42.407Z,65.15
2022-11-08T14:50:18.296Z,61.17
2022-11-08T14:52:45.984Z,60.53
2022-11-08T14:55:14.811Z,75.32
2022-11-08T14:57:43.174Z,60.33
2022-11-08T15:00:19.071Z,69.63
2022-11-08T15:02:48.319Z,62.75
2022-11-08T15:05:31.617Z,65.80
2022-11-08T15:07:59.578Z,62.50
2022-11-08T15:10:27.697Z,71.28
2022-11-08T15:12:55.524Z,66.47
2022-11-08T15:15:25.274Z,63.88
2022-11-08T15:18:06.161Z,71.78
2022-11-08T15:20:35.045Z,74.97
2022-11-08T15:23:11.446Z,60.15
2022-11-08T15:25:39.200Z,66.40
2022-11-08T15:28:25.778Z,64.32
2022-11-08T15:30:56.115Z,68.28
2022-11-08T15:33:24.573Z,64.13
2022-11-08T15:35:53.508Z,68.18
2022-11-08T15:38:26.296Z,61.28
2022-11-08T15:40:55.392Z,61.70
2022-11-08T15:43:37.078Z,64.25
2022-11-08T15:46:05.521Z,63.83
2022-11-08T15:48:33.423Z,75.55
2022-11-08T15:51:05.444Z,64.68
2022-11-08T15:53:33.643Z,70.75
2022-11-08T15:56:02.347Z,61.28
2022-11-08T15:58:31.519Z,53.35
2022-11-08T16:01:00.452Z,68.75
2022-11-08T16:03:27.980Z,66.32
2022-11-08T16:05:57.578Z,72.07
2022-11-08T16:08:26.752Z,78.55
2022-11-08T16:10:55.670Z,66.50
2022-11-08T16:13:25.224Z,79.07
2022-11-08T16:15:52.790Z,65.80
2022-11-08T16:18:20.992Z,63.70
2022-11-08T16:20:48.763Z,68.85
2022-11-08T16:23:16.337Z,75.55
2022-11-08T16:25:46.439Z,71.85
2022-11-08T16:28:17.096Z,76.82
2022-11-08T16:30:46.991Z,79.47
2022-11-08T16:33:19.050Z,74.72
2022-11-08T16:35:46.757Z,73.20
2022-11-08T16:38:14.337Z,82.05
2022-11-08T16:40:42.090Z,65.95
2022-11-08T16:43:12.590Z,75.80
2022-11-08T16:46:03.845Z,67.20
2022-11-08T16:48:28.035Z,79.93
2022-11-08T16:50:59.222Z,74.13
2022-11-08T16:53:26.918Z,89.97
2022-11-08T16:55:54.440Z,82.13
2022-11-08T16:58:23.248Z,81.53
2022-11-08T17:00:50.891Z,91.28
2022-11-08T17:03:20.552Z,90.18
2022-11-08T17:05:48.527Z,98.22
2022-11-08T17:08:16.944Z,103.50
2022-11-08T17:10:44.795Z,102.00
2022-11-08T17:13:14.533Z,99.43
2022-11-08T17:15:44.013Z,111.53
2022-11-08T17:18:12.697Z,114.60
2022-11-08T17:20:40.465Z,118.63
2022-11-08T17:23:09.249Z,120.82
2022-11-08T17:25:37.292Z,128.68
2022-11-08T17:28:06.075Z,139.73
2022-11-08T17:30:36.992Z,134.38
2022-11-08T17:33:07.975Z,137.20
2022-11-08T17:35:41.016Z,129.13
2022-11-08T17:38:10.638Z,139.75
2022-11-08T17:40:38.168Z,126.20
2022-11-08T17:43:05.674Z,132.68
2022-11-08T17:45:33.246Z,125.60
2022-11-08T17:48:00.800Z,114.45
2022-11-08T17:50:29.726Z,133.93
2022-11-08T17:52:57.182Z,100.72
2022-11-08T17:55:24.785Z,122.85
2022-11-08T17:57:52.279Z,114.00
2022-11-08T18:00:20.092Z,123.05
2022-11-08T18:02:47.601Z,125.90
2022-11-08T18:05:18.420Z,124.00
2022-11-08T18:07:47.265Z,112.03
2022-11-08T18:10:17.125Z,114.30
2022-11-08T18:12:45.015Z,118.03
2022-11-08T18:15:12.686Z,131.60
2022-11-08T18:17:40.189Z,111.13
2022-11-08T18:20:08.331Z,116.55
2022-11-08T18:22:35.988Z,118.60
2022-11-08T18:25:05.219Z,116.50
2022-11-08T18:27:33.061Z,115.25
2022-11-08T18:30:00.632Z,115.68
2022-11-08T18:32:28.223Z,127.10
2022-11-08T18:34:57.222Z,111.28
2022-11-08T18:37:24.796Z,110.38
2022-11-08T18:39:52.280Z,128.95
2022-11-08T18:42:22.167Z,119.03
2022-11-08T18:44:49.648Z,116.40
2022-11-08T18:47:17.188Z,127.47
2022-11-08T18:49:44.734Z,137.70
2022-11-08T18:52:12.219Z,123.93
2022-11-08T18:54:39.718Z,134.65
2022-11-08T18:57:07.215Z,143.95
2022-11-08T18:59:36.224Z,135.57
2022-11-08T19:02:04.114Z,125.38
2022-11-08T19:04:31.639Z,151.65
2022-11-08T19:06:59.195Z,145.90
2022-11-08T19:09:26.735Z,133.65
2022-11-08T19:11:54.618Z,139.85
2022-11-08T19:14:22.201Z,122.25
2022-11-08T19:16:54.551Z,126.47
2022-11-08T19:19:23.464Z,113.03
2022-11-08T19:21:51.224Z,129.43
2022-11-08T19:24:18.891Z,136.80
2022-11-08T19:26:46.573Z,126.65
2022-11-08T19:29:14.406Z,128.95
2022-11-08T19:31:42.768Z,133.70
2022-11-08T19:34:11.632Z,130.10
2022-11-08T19:36:43.398Z,132.23
2022-11-08T19:39:11.899Z,120.55
2022-11-08T19:41:40.503Z,137.38
2022-11-08T19:44:08.142Z,148.38
2022-11-08T19:46:36.451Z,126.25
2022-11-08T19:49:04.509Z,118.40
2022-11-08T19:51:34.304Z,123.40
2022-11-08T19:54:03.322Z,125.82
2022-11-08T19:56:57.734Z,134.18
2022-11-08T19:59:18.998Z,129.45
2022-11-08T20:01:47.338Z,122.70
2022-11-08T20:04:15.463Z,142.30
2022-11-08T20:06:45.924Z,148.20
2022-11-08T20:09:13.898Z,137.07
2022-11-08T20:11:41.932Z,167.50
2022-11-08T20:14:10.015Z,149.25
2022-11-08T20:16:40.075Z,138.90
2022-11-08T20:19:09.591Z,146.43
2022-11-08T20:21:38.801Z,155.93
2022-11-08T20:24:08.511Z,154.60
2022-11-08T20:26:38.343Z,139.85
2022-11-08T20:29:07.118Z,142.45
2022-11-08T20:31:35.028Z,144.48
2022-11-08T20:34:05.800Z,144.57
2022-11-08T20:36:35.344Z,156.63
2022-11-08T20:39:06.947Z,147.80
2022-11-08T20:41:37.691Z,172.85
2022-11-08T20:44:05.640Z,190.63
2022-11-08T20:46:34.156Z,196.73
2022-11-08T20:49:02.070Z,255.95
2022-11-08T20:51:30.851Z,177.02
2022-11-08T20:53:58.692Z,256.77
2022-11-08T20:56:26.190Z,200.15
2022-11-08T20:58:55.249Z,202.55
2022-11-08T21:01:24.050Z,170.23
2022-11-08T21:03:52.681Z,193.70
2022-11-08T21:06:22.045Z,184.93
2022-11-08T21:08:59.176Z,177.48
2022-11-08T21:11:30.169Z,185.38
2022-11-08T21:13:59.327Z,169.00
2022-11-08T21:16:35.117Z,197.52
2022-11-08T21:19:10.029Z,184.10
2022-11-08T21:21:53.689Z,173.52
2022-11-08T21:24:35.884Z,182.83
2022-11-08T21:27:03.545Z,174.50
2022-11-08T21:29:36.147Z,181.20
2022-11-08T21:32:10.217Z,167.98
2022-11-08T21:34:37.926Z,185.60
2022-11-08T21:37:05.476Z,178.57
2022-11-08T21:39:33.027Z,178.60
2022-11-08T21:42:03.579Z,173.60
2022-11-08T21:44:32.457Z,167.82
2022-11-08T21:47:00.007Z,167.55
2022-11-08T21:49:27.703Z,189.75
2022-11-08T21:51:55.300Z,187.35
2022-11-08T21:54:25.039Z,178.80
2022-11-08T21:56:52.812Z,185.95
2022-11-08T21:59:23.515Z,169.77
2022-11-08T22:04:59.154Z,183.10
2022-11-08T22:07:31.046Z,176.95
2022-11-08T22:10:04.334Z,171.25
2022-11-08T22:12:35.883Z,148.80
2022-11-08T22:15:11.121Z,147.77
2022-11-08T22:18:14.247Z,162.02
2022-11-08T22:21:20.176Z,179.02
2022-11-08T22:23:51.003Z,169.40
2022-11-08T22:26:27.892Z,169.35
2022-11-08T22:29:04.810Z,152.90
2022-11-08T22:31:34.221Z,142.40
2022-11-08T22:34:15.931Z,157.15
2022-11-08T22:37:11.015Z,168.77
2022-11-08T22:39:39.251Z,147.65
2022-11-08T22:42:07.258Z,131.38
2022-11-08T22:44:39.033Z,135.70
2022-11-08T22:47:10.432Z,135.05
2022-11-08T22:49:44.872Z,130.75
2022-11-08T22:52:14.095Z,127.70
2022-11-08T22:54:41.733Z,115.72
2022-11-08T22:57:09.214Z,111.80
2022-11-08T22:59:36.752Z,99.18
2022-11-08T23:02:04.236Z,113.97
2022-11-08T23:04:31.778Z,102.90
2022-11-08T23:06:59.350Z,91.10
2022-11-08T23:09:28.298Z,97.63
2022-11-08T23:12:13.277Z,102.95
2022-11-08T23:14:58.085Z,98.28
2022-11-08T23:17:25.621Z,118.60
2022-11-08T23:20:10.699Z,106.85
2022-11-08T23:22:55.906Z,100.18
2022-11-08T23:25:24.752Z,110.40
2022-11-08T23:28:09.721Z,128.27
2022-11-08T23:30:54.563Z,140.13
2022-11-08T23:33:22.392Z,121.25
2022-11-08T23:36:14.270Z,115.00
2022-11-08T23:38:42.274Z,121.13
2022-11-08T23:41:29.047Z,126.93
2022-11-08T23:44:14.137Z,124.95
2022-11-08T23:46:41.699Z,140.23
2022-11-08T23:49:09.236Z,156.82
2022-11-08T23:51:36.773Z,147.55
2022-11-08T23:54:04.349Z,159.48
2022-11-08T23:56:33.197Z,154.13
2022-11-08T23:59:01.293Z,177.75
